Time;durP1;ratioP1;P1;durP2;ratioP2;P2;SDS_P1;SDS_P2;PMS_P1;PMS_P2;Temp;Humidity;BMP_temperature;BMP_pressure;BME280_temperature;BME280_humidity;BME280_pressure;Samples;Min_cycle;Max_cycle;Signal;HPM_P1;HPM_P2
2021/10/20 00:00:39;;;;;;;18.83;16.87;;;;;;;16.99;83.62;101032.66;5050383;28;20785;-69
2021/10/20 00:03:05;;;;;;;21.93;17.53;;;;;;;16.98;83.84;101040.44;5051431;28;20186;-70
2021/10/20 00:05:30;;;;;;;19.20;17.20;;;;;;;17.00;83.56;101030.97;5050021;28;20182;-69
2021/10/20 00:07:56;;;;;;;19.77;17.27;;;;;;;16.93;83.69;101018.91;5050254;28;20960;-69
2021/10/20 00:10:22;;;;;;;18.87;16.87;;;;;;;16.88;84.20;101028.41;5048929;28;20233;-69
2021/10/20 00:12:49;;;;;;;20.27;18.07;;;;;;;16.87;83.92;101018.94;5050076;28;20232;-69
2021/10/20 00:15:18;;;;;;;22.50;17.43;;;;;;;16.86;84.09;101023.22;5048624;28;20216;-69
2021/10/20 00:17:44;;;;;;;20.40;17.97;;;;;;;16.85;83.87;101013.75;5050874;28;20210;-69
2021/10/20 00:20:14;;;;;;;19.30;17.20;;;;;;;16.79;84.11;101012.91;5050000;28;20195;-69
2021/10/20 00:22:40;;;;;;;18.97;16.97;;;;;;;16.80;84.12;101010.31;5049983;28;20187;-69
2021/10/20 00:25:08;;;;;;;18.70;16.70;;;;;;;16.77;84.15;101002.56;5049923;28;20188;-69
2021/10/20 00:27:33;;;;;;;19.07;17.07;;;;;;;16.77;84.31;101005.16;5048793;28;20212;-69
2021/10/20 00:29:58;;;;;;;20.43;17.23;;;;;;;16.75;84.14;100993.09;5048655;28;20182;-71
2021/10/20 00:32:24;;;;;;;19.40;16.93;;;;;;;16.70;84.04;100997.41;5066164;28;20641;-69
2021/10/20 00:34:49;;;;;;;18.87;17.03;;;;;;;16.63;84.13;100996.56;5069841;28;20205;-69
2021/10/20 00:37:14;;;;;;;18.67;16.77;;;;;;;16.58;84.45;100989.72;5069489;28;20208;-70
2021/10/20 00:39:40;;;;;;;17.93;16.13;;;;;;;16.57;84.09;100988.84;5069848;28;20704;-70
2021/10/20 00:42:05;;;;;;;18.17;16.27;;;;;;;16.53;84.17;100986.28;5069752;28;20546;-70
2021/10/20 00:44:51;;;;;;;18.47;16.10;;;;;;;16.52;83.95;100977.66;5068061;28;20181;-70
2021/10/20 00:47:17;;;;;;;18.23;16.33;;;;;;;16.47;84.13;100975.94;5069327;28;20242;-70
2021/10/20 00:49:43;;;;;;;18.20;16.27;;;;;;;16.45;84.30;100975.09;5069650;28;20697;-70
2021/10/20 00:52:09;;;;;;;18.50;14.97;;;;;;;16.44;84.12;100971.63;5069587;28;20213;-69
2021/10/20 00:54:35;;;;;;;17.17;15.33;;;;;;;16.39;84.19;100962.16;5069491;28;20701;-70
2021/10/20 00:57:01;;;;;;;17.53;15.63;;;;;;;16.34;84.41;100961.31;5069293;28;20282;-70
2021/10/20 00:59:27;;;;;;;18.67;14.87;;;;;;;16.30;84.10;100960.44;5062305;28;20182;-70
2021/10/20 01:01:52;;;;;;;16.70;14.90;;;;;;;16.27;84.25;100954.41;5049436;28;20189;-70
2021/10/20 01:04:18;;;;;;;16.63;14.70;;;;;;;16.26;83.95;100948.38;5058577;28;20193;-70
2021/10/20 01:06:43;;;;;;;15.53;13.93;;;;;;;16.24;84.40;100944.06;5069137;28;20185;-71
2021/10/20 01:09:08;;;;;;;15.57;13.97;;;;;;;16.15;84.36;100944.09;5069574;28;20200;-70
2021/10/20 01:11:34;;;;;;;15.23;13.67;;;;;;;16.14;84.35;100940.66;5068241;28;20189;-70
2021/10/20 01:13:59;;;;;;;16.10;14.20;;;;;;;16.11;84.63;100944.97;5067581;28;20185;-70
2021/10/20 01:16:24;;;;;;;16.10;13.67;;;;;;;16.07;84.45;100932.91;5067920;28;20557;-69
2021/10/20 01:18:50;;;;;;;14.67;13.17;;;;;;;16.06;84.70;100932.03;5069293;28;20569;-70
2021/10/20 01:21:17;;;;;;;15.77;13.03;;;;;;;16.07;84.39;100922.59;5069284;28;20196;-70
2021/10/20 01:23:44;;;;;;;14.73;12.93;;;;;;;16.02;84.17;100920.00;5067856;28;20642;-69
2021/10/20 01:26:10;;;;;;;14.63;13.13;;;;;;;16.03;84.23;100916.53;5069125;28;20181;-71
2021/10/20 01:28:35;;;;;;;15.43;13.07;;;;;;;15.98;84.33;100904.53;5053761;28;20279;-70
2021/10/20 01:31:00;;;;;;;15.17;12.43;;;;;;;15.92;84.53;100907.97;5049028;28;20193;-70
2021/10/20 01:33:26;;;;;;;14.87;12.70;;;;;;;15.94;84.89;100908.81;5049016;28;20189;-70
2021/10/20 01:35:51;;;;;;;13.23;11.93;;;;;;;15.91;84.61;100906.25;5061690;28;20228;-69
2021/10/20 01:38:17;;;;;;;14.77;12.07;;;;;;;15.88;84.44;100895.06;5068285;28;20220;-69
2021/10/20 01:40:42;;;;;;;14.53;12.27;;;;;;;15.88;84.32;100901.06;5072045;28;20189;-69
2021/10/20 01:43:07;;;;;;;14.63;11.50;;;;;;;15.90;84.53;100901.06;5073416;28;20306;-69
2021/10/20 01:45:33;;;;;;;14.00;11.57;;;;;;;15.84;84.61;100894.19;5072761;28;20638;-70
2021/10/20 01:47:58;;;;;;;13.67;11.87;;;;;;;15.86;84.11;100891.59;5072896;28;20209;-70
2021/10/20 01:50:24;;;;;;;12.37;11.00;;;;;;;15.84;84.19;100885.59;5072890;28;20220;-69
2021/10/20 01:52:49;;;;;;;12.60;11.30;;;;;;;15.81;84.15;100888.16;5072833;28;20185;-70
2021/10/20 01:55:16;;;;;;;12.23;11.00;;;;;;;15.81;83.99;100888.16;5069405;28;20210;-70
2021/10/20 01:57:42;;;;;;;12.53;10.93;;;;;;;15.86;83.74;100886.44;5034558;28;20210;-70
2021/10/20 02:00:08;;;;;;;11.23;9.77;;;;;;;15.83;83.72;100876.09;5052654;28;20193;-70
2021/10/20 02:02:41;;;;;;;10.80;9.67;;;;;;;15.78;83.93;100880.41;5052784;28;20186;-70
2021/10/20 02:05:08;;;;;;;13.60;10.67;;;;;;;15.77;83.55;100882.16;5052659;28;20543;-69
2021/10/20 02:07:34;;;;;;;11.70;10.27;;;;;;;15.80;83.03;100865.81;5052177;28;20693;-69
2021/10/20 02:09:59;;;;;;;14.50;10.33;;;;;;;15.87;82.68;100864.91;5052196;28;20190;-69
2021/10/20 02:12:24;;;;;;;12.93;10.20;;;;;;;15.81;83.07;100852.03;5052406;28;20210;-70
2021/10/20 02:14:49;;;;;;;11.23;9.97;;;;;;;15.81;83.25;100854.59;5050838;28;20224;-69
2021/10/20 02:17:15;;;;;;;11.93;9.73;;;;;;;15.76;83.30;100862.38;5052000;28;20237;-69
2021/10/20 02:19:40;;;;;;;11.37;9.97;;;;;;;15.73;83.10;100846.88;5052443;28;20331;-69
2021/10/20 02:22:06;;;;;;;10.03;8.97;;;;;;;15.74;83.22;100842.56;5052226;28;20178;-69
2021/10/20 02:24:31;;;;;;;12.30;9.63;;;;;;;15.72;83.15;100840.00;5064467;28;20697;-69
2021/10/20 02:26:57;;;;;;;11.57;9.47;;;;;;;15.67;83.39;100843.44;5072002;28;20573;-69
2021/10/20 02:29:22;;;;;;;13.17;9.60;;;;;;;15.61;83.54;100827.97;5072223;28;20170;-69
2021/10/20 02:31:48;;;;;;;13.83;9.93;;;;;;;15.60;83.63;100828.81;5070299;28;20205;-70
2021/10/20 02:34:16;;;;;;;9.70;8.80;;;;;;;15.56;83.55;100817.63;5071930;28;20641;-69
2021/10/20 02:36:41;;;;;;;13.17;10.57;;;;;;;15.55;83.58;100810.75;5071598;28;20219;-69
2021/10/20 02:39:07;;;;;;;10.47;9.40;;;;;;;15.56;83.31;100816.78;5070864;28;20264;-69
2021/10/20 02:41:32;;;;;;;13.17;10.27;;;;;;;15.52;83.58;100810.75;5071991;28;20590;-69
2021/10/20 02:43:58;;;;;;;11.33;9.23;;;;;;;15.52;83.61;100809.91;5071428;28;20196;-69
2021/10/20 02:46:23;;;;;;;10.90;9.07;;;;;;;15.50;83.30;100804.72;5050630;28;20185;-70
2021/10/20 02:48:48;;;;;;;11.27;9.07;;;;;;;15.50;82.69;100802.16;5051765;28;20714;-69
2021/10/20 02:51:14;;;;;;;11.47;8.83;;;;;;;15.47;83.72;100803.88;5050271;28;20674;-70
2021/10/20 02:53:39;;;;;;;9.70;8.43;;;;;;;15.40;83.59;100800.44;5051986;28;20550;-70
2021/10/20 02:56:04;;;;;;;12.20;8.47;;;;;;;15.45;83.05;100795.28;5051394;28;20580;-69
2021/10/20 02:58:30;;;;;;;10.23;9.23;;;;;;;15.45;82.83;100797.84;5051676;28;20190;-69
2021/10/20 03:00:55;;;;;;;12.47;8.60;;;;;;;15.45;82.67;100796.16;5071153;28;20204;-70
2021/10/20 03:03:20;;;;;;;12.30;8.27;;;;;;;15.40;82.80;100795.28;5071635;28;20185;-69
2021/10/20 03:05:46;;;;;;;11.73;8.90;;;;;;;15.36;82.73;100783.25;5071328;28;20250;-70
2021/10/20 03:08:11;;;;;;;11.27;8.83;;;;;;;15.37;82.86;100784.13;5070375;28;20637;-69
2021/10/20 03:10:37;;;;;;;9.93;8.93;;;;;;;15.36;82.55;100779.78;5051444;28;20279;-69
2021/10/20 03:13:03;;;;;;;9.13;7.90;;;;;;;15.30;82.92;100784.94;5052505;28;20193;-69
2021/10/20 03:15:28;;;;;;;10.33;8.90;;;;;;;15.28;82.98;100790.09;5051243;28;20973;-70
2021/10/20 03:17:53;;;;;;;9.20;8.30;;;;;;;15.26;82.99;100783.22;5051058;28;20216;-69
2021/10/20 03:20:19;;;;;;;11.37;8.63;;;;;;;15.22;82.95;100778.91;5051156;28;20194;-69
2021/10/20 03:22:44;;;;;;;10.80;8.67;;;;;;;15.21;82.95;100774.63;5051294;28;20185;-69
2021/10/20 03:25:12;;;;;;;9.80;8.57;;;;;;;15.20;83.24;100766.00;5051083;28;20236;-69
2021/10/20 03:27:46;;;;;;;10.90;7.93;;;;;;;15.17;82.80;100760.88;5057228;28;20201;-69
2021/10/20 03:30:12;;;;;;;12.23;8.33;;;;;;;15.19;82.73;100766.03;5071066;28;20188;-69
2021/10/20 03:32:38;;;;;;;10.83;8.23;;;;;;;15.16;82.83;100766.03;5070875;28;20197;-69
2021/10/20 03:35:04;;;;;;;9.23;8.37;;;;;;;15.12;83.12;100772.03;5070799;28;20575;-70
2021/10/20 03:37:30;;;;;;;9.17;8.20;;;;;;;15.10;82.66;100773.78;5069490;28;20205;-69
2021/10/20 03:39:56;;;;;;;9.73;8.23;;;;;;;15.07;83.22;100766.03;5071005;28;20547;-69
2021/10/20 03:42:21;;;;;;;10.50;8.67;;;;;;;15.01;82.81;100760.88;5052387;28;20817;-69
2021/10/20 03:44:46;;;;;;;10.20;8.40;;;;;;;15.02;83.36;100760.88;5050994;28;20252;-70
2021/10/20 03:47:12;;;;;;;10.17;8.20;;;;;;;14.99;83.05;100760.88;5050582;28;20239;-69
2021/10/20 03:49:37;;;;;;;8.90;8.00;;;;;;;14.99;83.14;100757.41;5050725;28;20194;-69
2021/10/20 03:52:03;;;;;;;9.47;8.50;;;;;;;15.00;82.62;100753.97;5049447;28;20190;-69
2021/10/20 03:54:28;;;;;;;10.43;7.97;;;;;;;14.96;82.71;100747.97;5050563;28;20214;-69
2021/10/20 03:56:54;;;;;;;9.27;7.63;;;;;;;14.92;83.13;100748.81;5067275;28;20219;-69
2021/10/20 03:59:19;;;;;;;8.63;7.77;;;;;;;14.94;82.78;100741.09;5065281;28;20243;-69
2021/10/20 04:01:44;;;;;;;9.07;8.00;;;;;;;14.87;83.05;100735.06;5050298;28;20193;-70
2021/10/20 04:04:09;;;;;;;10.73;8.33;;;;;;;14.85;82.94;100728.19;5050714;28;20189;-69
2021/10/20 04:06:35;;;;;;;8.47;7.67;;;;;;;14.82;82.82;100720.47;5050150;28;20252;-69
2021/10/20 04:09:00;;;;;;;8.90;8.10;;;;;;;14.82;82.73;100723.91;5050278;28;20632;-69
2021/10/20 04:11:26;;;;;;;10.80;8.20;;;;;;;14.82;82.66;100713.59;5050195;28;20613;-69
2021/10/20 04:13:51;;;;;;;11.60;7.97;;;;;;;14.80;82.58;100714.44;5051289;28;20194;-69
2021/10/20 04:16:16;;;;;;;13.83;7.93;;;;;;;14.77;83.02;100707.56;5050935;28;20245;-69
2021/10/20 04:18:42;;;;;;;9.07;7.27;;;;;;;14.77;82.40;100701.53;5050001;28;20224;-69
2021/10/20 04:21:07;;;;;;;9.33;7.33;;;;;;;14.73;82.48;100705.84;5048590;28;20185;-69
2021/10/20 04:23:32;;;;;;;9.20;7.00;;;;;;;14.74;82.70;100694.69;5050074;28;20406;-69
2021/10/20 04:25:58;;;;;;;9.17;7.40;;;;;;;14.73;82.71;100692.13;5031997;28;20507;-69
2021/10/20 04:28:23;;;;;;;8.67;7.53;;;;;;;14.69;82.47;100685.25;5051171;28;20620;-69
2021/10/20 04:30:48;;;;;;;9.83;7.40;;;;;;;14.68;82.69;100686.13;5049798;28;20231;-69
2021/10/20 04:33:14;;;;;;;10.33;7.10;;;;;;;14.67;82.49;100697.25;5049705;28;20178;-69
2021/10/20 04:35:39;;;;;;;8.33;7.00;;;;;;;14.64;82.24;100684.38;5049568;28;20263;-69
2021/10/20 04:38:04;;;;;;;9.33;7.33;;;;;;;14.64;81.93;100689.53;5049574;28;20206;-69
2021/10/20 04:40:30;;;;;;;7.73;6.90;;;;;;;14.62;82.51;100689.53;5049798;28;20198;-69
2021/10/20 04:42:57;;;;;;;8.43;7.30;;;;;;;14.61;81.92;100687.81;5049897;28;20194;-69
2021/10/20 04:45:22;;;;;;;10.40;6.77;;;;;;;14.61;81.71;100677.50;5049695;28;20651;-69
2021/10/20 04:47:47;;;;;;;9.00;6.70;;;;;;;14.61;81.88;100682.66;5048196;28;20209;-69
2021/10/20 04:50:13;;;;;;;7.60;6.53;;;;;;;14.59;81.78;100683.53;5049679;28;20189;-69
2021/10/20 04:52:38;;;;;;;7.67;6.83;;;;;;;14.58;81.76;100681.78;5048290;28;20184;-69
2021/10/20 04:55:05;;;;;;;9.47;6.93;;;;;;;14.55;82.17;100676.66;5048173;28;20218;-69
2021/10/20 04:57:31;;;;;;;8.63;6.67;;;;;;;14.57;81.96;100667.19;5053030;28;20209;-69
2021/10/20 04:59:56;;;;;;;9.83;6.37;;;;;;;14.58;81.81;100659.47;5069452;28;20189;-69
2021/10/20 05:02:21;;;;;;;7.17;6.43;;;;;;;14.58;81.55;100664.63;5069551;28;20190;-69
2021/10/20 05:04:47;;;;;;;8.60;6.40;;;;;;;14.59;81.12;100665.50;5062301;28;20193;-69
2021/10/20 05:07:13;;;;;;;7.77;6.07;;;;;;;14.56;81.20;100650.88;5068927;28;20211;-69
2021/10/20 05:09:38;;;;;;;7.23;5.93;;;;;;;14.63;80.85;100647.44;5069222;28;20181;-69
2021/10/20 05:12:05;;;;;;;8.47;6.27;;;;;;;14.60;80.82;100642.25;5068401;28;20185;-70
2021/10/20 05:14:30;;;;;;;6.43;5.83;;;;;;;14.60;80.45;100633.69;5071062;28;20221;-70
2021/10/20 05:16:56;;;;;;;6.83;5.53;;;;;;;14.64;79.78;100638.00;5072216;28;20240;-69
2021/10/20 05:19:21;;;;;;;9.40;6.57;;;;;;;14.60;80.45;100628.53;5073834;28;20196;-70
2021/10/20 05:21:46;;;;;;;8.60;6.07;;;;;;;14.63;79.99;100636.25;5070573;28;20182;-69
2021/10/20 05:24:11;;;;;;;7.00;6.30;;;;;;;14.69;79.21;100625.97;5053503;28;20182;-70
2021/10/20 05:26:37;;;;;;;9.23;6.53;;;;;;;14.78;78.92;100624.22;5053153;28;20189;-69
2021/10/20 05:29:02;;;;;;;6.93;6.23;;;;;;;14.77;79.19;100624.22;5053782;28;20186;-69
2021/10/20 05:31:28;;;;;;;7.30;5.70;;;;;;;14.78;79.03;100613.06;5053166;28;20241;-69
2021/10/20 05:33:53;;;;;;;9.17;6.03;;;;;;;14.81;78.31;100619.06;5053241;28;20555;-69
2021/10/20 05:36:18;;;;;;;8.30;6.20;;;;;;;14.84;77.93;100616.50;5052932;28;20994;-69
2021/10/20 05:38:43;;;;;;;7.63;5.80;;;;;;;14.83;78.58;100603.59;5052990;28;20218;-69
2021/10/20 05:41:09;;;;;;;8.13;6.20;;;;;;;14.81;78.61;100607.88;5054602;28;20233;-69
2021/10/20 05:43:34;;;;;;;6.07;5.47;;;;;;;14.82;78.14;100595.00;5072644;28;20550;-69
2021/10/20 05:45:59;;;;;;;8.60;6.00;;;;;;;14.82;78.45;100595.00;5064914;28;20260;-70
2021/10/20 05:48:25;;;;;;;8.53;5.70;;;;;;;14.84;78.00;100582.09;5073163;28;20308;-69
2021/10/20 05:50:52;;;;;;;6.83;4.93;;;;;;;14.89;77.70;100575.22;5087328;28;20284;-69
2021/10/20 05:53:17;;;;;;;7.60;6.03;;;;;;;14.89;77.43;100572.63;5080785;28;20192;-69
2021/10/20 05:55:43;;;;;;;7.87;5.77;;;;;;;14.95;76.70;100573.50;5092035;28;20209;-69
2021/10/20 05:58:12;;;;;;;7.33;5.53;;;;;;;14.89;77.46;100570.06;5085868;28;20237;-69
2021/10/20 06:00:38;;;;;;;7.00;5.33;;;;;;;14.98;76.37;100570.03;5072373;28;20272;-69
2021/10/20 06:03:04;;;;;;;6.40;5.53;;;;;;;14.94;77.09;100573.47;5070808;28;20276;-69
2021/10/20 06:05:30;;;;;;;7.10;5.40;;;;;;;14.93;76.86;100566.63;5052367;28;20601;-69
2021/10/20 06:07:56;;;;;;;7.27;5.67;;;;;;;14.94;77.19;100563.16;5052475;28;20210;-69
2021/10/20 06:10:22;;;;;;;6.67;5.50;;;;;;;14.90;76.94;100575.22;5065183;28;20220;-69
2021/10/20 06:12:48;;;;;;;7.20;6.17;;;;;;;14.86;77.37;100559.75;5092717;28;20223;-69
2021/10/20 06:15:14;;;;;;;7.43;5.93;;;;;;;14.91;76.67;100568.34;5092557;28;20209;-69
2021/10/20 06:17:40;;;;;;;6.40;5.67;;;;;;;14.94;76.82;100564.03;5092845;28;20215;-69
2021/10/20 06:20:06;;;;;;;7.30;5.60;;;;;;;14.93;76.88;100570.06;5088356;28;20180;-69
2021/10/20 06:22:32;;;;;;;6.77;5.87;;;;;;;15.01;76.19;100568.31;5052426;28;20662;-69
2021/10/20 06:24:58;;;;;;;7.03;6.10;;;;;;;15.04;76.32;100567.44;5052564;28;20182;-69
2021/10/20 06:27:23;;;;;;;7.10;5.97;;;;;;;14.97;76.43;100548.53;5052013;28;20197;-69
2021/10/20 06:29:49;;;;;;;7.20;5.90;;;;;;;14.99;76.24;100549.41;5052285;28;20239;-69
2021/10/20 06:32:15;;;;;;;7.30;5.83;;;;;;;15.00;76.60;100553.69;5051918;28;20205;-69
2021/10/20 06:34:40;;;;;;;7.23;6.03;;;;;;;14.99;76.31;100556.28;5051985;28;20205;-69
2021/10/20 06:37:05;;;;;;;6.00;5.37;;;;;;;15.03;75.93;100550.25;5052238;28;21003;-69
2021/10/20 06:39:31;;;;;;;6.10;5.50;;;;;;;15.04;76.02;100549.38;5052043;28;20205;-69
2021/10/20 06:41:57;;;;;;;11.97;6.23;;;;;;;15.05;76.04;100548.53;5051817;28;20194;-69
2021/10/20 06:44:22;;;;;;;7.30;5.93;;;;;;;15.03;76.52;100542.50;5050473;28;20185;-69
2021/10/20 06:46:48;;;;;;;6.73;5.87;;;;;;;15.05;76.10;100536.47;5062722;28;20188;-69
2021/10/20 06:49:14;;;;;;;7.67;5.97;;;;;;;15.06;75.94;100539.94;5092038;28;20977;-69
2021/10/20 06:51:40;;;;;;;7.17;5.53;;;;;;;15.04;76.36;100539.94;5091910;28;20215;-69
2021/10/20 06:54:06;;;;;;;8.47;5.63;;;;;;;15.03;76.33;100530.50;5085650;28;20197;-69
2021/10/20 06:56:31;;;;;;;8.87;5.17;;;;;;;15.08;75.33;100533.91;5050005;28;20218;-69
2021/10/20 06:58:57;;;;;;;7.30;5.43;;;;;;;15.06;75.95;100524.47;5058919;28;20892;-69
2021/10/20 07:01:22;;;;;;;7.60;5.47;;;;;;;15.05;76.12;100526.16;5071362;28;20185;-69
2021/10/20 07:03:47;;;;;;;6.90;5.90;;;;;;;15.00;76.74;100504.69;5071491;28;20185;-69
2021/10/20 07:06:13;;;;;;;6.20;5.60;;;;;;;15.00;76.76;100514.16;5069749;28;20181;-69
2021/10/20 07:08:38;;;;;;;9.43;5.40;;;;;;;14.99;76.20;100521.03;5071382;28;20710;-69
2021/10/20 07:11:03;;;;;;;8.30;5.77;;;;;;;14.98;76.40;100513.31;5068356;28;20918;-69
2021/10/20 07:13:28;;;;;;;6.27;5.53;;;;;;;14.96;76.63;100515.06;5051247;28;20194;-69
2021/10/20 07:15:57;;;;;;;7.00;5.33;;;;;;;14.97;76.62;100521.91;5049749;28;20218;-69
2021/10/20 07:18:23;;;;;;;5.83;5.23;;;;;;;14.94;76.25;100504.72;5050061;28;20221;-69
2021/10/20 07:20:48;;;;;;;6.50;5.37;;;;;;;14.95;76.62;100501.28;5051225;28;20709;-69
2021/10/20 07:23:14;;;;;;;7.27;5.40;;;;;;;14.97;76.38;100503.88;5051427;28;20182;-69
2021/10/20 07:25:39;;;;;;;6.70;5.77;;;;;;;14.98;76.06;100492.69;5066522;28;20217;-69
2021/10/20 07:28:05;;;;;;;9.40;5.77;;;;;;;14.99;76.49;100497.84;5069737;28;20225;-69
2021/10/20 07:30:30;;;;;;;5.63;5.10;;;;;;;15.02;76.24;100491.81;5051392;28;20271;-69
2021/10/20 07:32:56;;;;;;;6.00;5.40;;;;;;;15.00;76.39;100485.78;5051013;28;20208;-69
2021/10/20 07:35:22;;;;;;;5.73;5.23;;;;;;;15.01;76.17;100472.03;5050928;28;20316;-69
2021/10/20 07:37:48;;;;;;;7.07;5.03;;;;;;;15.00;76.31;100488.34;5062603;28;20224;-69
2021/10/20 07:40:15;;;;;;;8.03;5.93;;;;;;;15.01;76.36;100461.72;5064652;28;20201;-69
2021/10/20 07:42:44;;;;;;;8.50;7.60;;;;;;;15.03;75.85;100463.44;5066843;28;20205;-69
2021/10/20 07:45:10;;;;;;;8.57;6.50;;;;;;;15.03;76.31;100470.31;5067535;28;20196;-69
2021/10/20 07:47:36;;;;;;;7.57;6.17;;;;;;;15.04;75.87;100470.31;5068938;28;20612;-69
2021/10/20 07:50:02;;;;;;;8.73;5.50;;;;;;;15.06;76.32;100467.72;5070252;28;20204;-69
2021/10/20 07:52:28;;;;;;;8.63;6.23;;;;;;;15.11;75.62;100460.81;5062072;28;20182;-69
2021/10/20 07:54:55;;;;;;;10.07;6.57;;;;;;;15.11;75.43;100456.50;5059628;28;20738;-70
2021/10/20 07:57:20;;;;;;;7.13;6.27;;;;;;;15.12;75.71;100447.06;5066061;28;20702;-70
2021/10/20 07:59:46;;;;;;;9.17;6.27;;;;;;;15.13;75.83;100446.19;5070261;28;20189;-70
2021/10/20 08:02:13;;;;;;;9.47;6.80;;;;;;;15.18;75.07;100442.72;5068891;28;20209;-70
2021/10/20 08:04:38;;;;;;;7.73;6.93;;;;;;;15.21;75.72;100439.25;5068578;28;20181;-70
2021/10/20 08:07:03;;;;;;;10.13;7.23;;;;;;;15.22;75.32;100439.25;5069536;28;20930;-69
2021/10/20 08:09:29;;;;;;;8.63;6.90;;;;;;;15.28;74.98;100430.63;5069683;28;20181;-69
2021/10/20 08:11:54;;;;;;;11.13;7.33;;;;;;;15.34;74.17;100435.78;5069568;28;20189;-70
2021/10/20 08:14:19;;;;;;;9.90;8.13;;;;;;;15.42;73.97;100423.69;5056151;28;20275;-69
2021/10/20 08:16:45;;;;;;;11.20;8.27;;;;;;;15.48;73.48;100400.41;5049375;28;20213;-70
2021/10/20 08:19:10;;;;;;;8.60;7.70;;;;;;;15.52;73.28;100402.94;5050306;28;20228;-70
2021/10/20 08:21:35;;;;;;;9.33;8.03;;;;;;;15.55;73.31;100404.63;5049493;28;20186;-71
2021/10/20 08:24:00;;;;;;;12.60;8.17;;;;;;;15.56;73.83;100388.31;5049783;28;20182;-71
2021/10/20 08:26:26;;;;;;;9.77;7.97;;;;;;;15.61;73.35;100387.38;5049145;28;20687;-71
2021/10/20 08:28:51;;;;;;;8.40;7.50;;;;;;;15.67;73.17;100387.34;5048013;28;20584;-72
2021/10/20 08:31:17;;;;;;;10.93;8.07;;;;;;;15.69;73.28;100382.16;5049301;28;20630;-70
2021/10/20 08:33:42;;;;;;;11.93;8.53;;;;;;;15.74;73.01;100375.25;5049386;28;21025;-71
2021/10/20 08:36:08;;;;;;;9.87;8.80;;;;;;;15.83;72.42;100386.34;5049728;28;20248;-69
2021/10/20 08:38:34;;;;;;;11.53;8.90;;;;;;;15.92;72.35;100394.00;5049080;28;20260;-70
2021/10/20 08:41:00;;;;;;;10.77;8.57;;;;;;;15.98;71.68;100382.75;5048036;28;20273;-71
2021/10/20 08:43:26;;;;;;;11.23;8.43;;;;;;;16.05;71.82;100392.13;5048119;28;20190;-71
2021/10/20 08:45:52;;;;;;;10.83;8.70;;;;;;;16.13;71.96;100385.19;5049522;28;20927;-71
2021/10/20 08:48:21;;;;;;;10.13;8.33;;;;;;;16.14;71.08;100387.75;5048778;28;20296;-70
2021/10/20 08:50:50;;;;;;;9.20;8.30;;;;;;;16.19;71.28;100398.03;5061652;28;20190;-71
2021/10/20 08:53:17;;;;;;;9.63;8.67;;;;;;;16.23;71.28;100398.00;5063955;28;20263;-70
2021/10/20 08:55:42;;;;;;;9.70;8.27;;;;;;;16.27;71.09;100379.00;5048962;28;20218;-71
2021/10/20 08:58:07;;;;;;;9.97;8.33;;;;;;;16.41;70.04;100378.88;5048847;28;20194;-70
2021/10/20 09:00:33;;;;;;;9.60;8.17;;;;;;;16.63;69.68;100351.88;5048783;28;20306;-71
2021/10/20 09:02:58;;;;;;;9.93;7.90;;;;;;;16.67;68.99;100345.81;5044263;28;20284;-71
2021/10/20 09:05:26;;;;;;;11.03;8.47;;;;;;;16.78;69.54;100343.91;5018875;28;20186;-71
2021/10/20 09:07:54;;;;;;;12.10;8.70;;;;;;;17.14;68.12;100335.63;5051597;28;20210;-72
2021/10/20 09:10:21;;;;;;;11.60;8.40;;;;;;;17.11;68.25;100330.47;5061674;28;20208;-71
2021/10/20 09:12:47;;;;;;;8.47;7.57;;;;;;;17.10;68.33;100337.41;5063135;28;20193;-71
2021/10/20 09:15:20;;;;;;;8.70;7.70;;;;;;;17.05;68.74;100330.59;5061549;28;20250;-71
2021/10/20 09:17:58;;;;;;;10.93;8.93;;;;;;;17.06;68.81;100304.69;5063237;28;20702;-71
2021/10/20 09:20:30;;;;;;;9.00;7.83;;;;;;;17.11;69.22;100300.31;5068170;28;20201;-71
2021/10/20 09:23:05;;;;;;;11.53;8.73;;;;;;;17.12;69.28;100293.38;5063629;28;20734;-72
2021/10/20 09:25:39;;;;;;;12.20;8.67;;;;;;;17.13;68.62;100282.16;5061081;28;20189;-72
2021/10/20 09:28:07;;;;;;;10.67;8.17;;;;;;;17.27;68.51;100269.84;5067099;28;20705;-71
2021/10/20 09:30:32;;;;;;;10.80;8.30;;;;;;;17.39;67.61;100252.41;5065246;28;20281;-71
2021/10/20 09:32:59;;;;;;;9.27;8.33;;;;;;;17.44;67.45;100265.25;5058034;28;20710;-71
2021/10/20 09:35:28;;;;;;;10.53;8.20;;;;;;;17.38;67.56;100255.84;5063490;28;20686;-72
2021/10/20 09:37:59;;;;;;;9.73;8.73;;;;;;;17.39;67.63;100257.59;5065392;28;20221;-71
2021/10/20 09:40:26;;;;;;;9.93;8.90;;;;;;;17.51;67.82;100256.50;5063522;28;20204;-70
2021/10/20 09:42:54;;;;;;;9.47;8.57;;;;;;;17.55;67.02;100264.19;5063327;28;20681;-70
2021/10/20 09:45:21;;;;;;;10.57;8.70;;;;;;;17.57;67.05;100269.34;5060512;28;20189;-70
2021/10/20 09:47:47;;;;;;;10.73;8.57;;;;;;;17.82;66.99;100268.00;5068894;28;20205;-70
2021/10/20 09:50:13;;;;;;;11.37;8.57;;;;;;;17.90;65.89;100266.09;5069096;28;20541;-71
2021/10/20 09:52:48;;;;;;;10.57;9.07;;;;;;;18.29;64.32;100245.41;5060664;28;20746;-71
2021/10/20 09:55:26;;;;;;;10.13;8.50;;;;;;;18.21;65.28;100243.88;5055786;28;20275;-71
2021/10/20 09:58:12;;;;;;;11.30;8.70;;;;;;;18.39;64.57;100231.41;5058055;28;20229;-70
2021/10/20 10:00:37;;;;;;;11.57;8.80;;;;;;;19.06;61.76;100228.94;5061931;28;20200;-70
2021/10/20 10:03:04;;;;;;;10.70;8.43;;;;;;;20.77;56.78;100212.78;5053602;28;20202;-70
2021/10/20 10:05:31;;;;;;;9.27;8.37;;;;;;;19.18;61.19;100230.38;5071158;28;20187;-69
2021/10/20 10:07:56;;;;;;;9.37;8.37;;;;;;;18.88;62.17;100241.53;5068369;28;20205;-71
2021/10/20 10:10:22;;;;;;;10.80;8.27;;;;;;;18.67;63.36;100231.63;5072531;28;20677;-70
2021/10/20 10:12:51;;;;;;;9.80;8.80;;;;;;;20.22;58.48;100231.84;5072357;28;20217;-70
2021/10/20 10:15:18;;;;;;;9.47;7.90;;;;;;;21.63;54.38;100197.66;5072888;28;20205;-70
2021/10/20 10:17:47;;;;;;;8.60;7.50;;;;;;;21.46;54.66;100208.69;5072567;28;20236;-70
2021/10/20 10:20:17;;;;;;;8.90;7.53;;;;;;;20.28;57.05;100207.41;5071025;28;20284;-70
2021/10/20 10:23:02;;;;;;;10.27;7.57;;;;;;;22.15;52.88;100174.00;5072439;28;20192;-70
2021/10/20 10:25:40;;;;;;;8.50;7.03;;;;;;;20.86;56.41;100176.06;5063606;28;20185;-70
2021/10/20 10:28:23;;;;;;;8.83;7.60;;;;;;;21.28;55.63;100166.81;5052254;28;20798;-70
2021/10/20 10:31:11;;;;;;;7.90;7.10;;;;;;;21.86;52.27;100158.59;5052206;28;20247;-70
2021/10/20 10:33:56;;;;;;;8.37;7.07;;;;;;;20.21;57.96;100154.72;5051938;28;20232;-70
2021/10/20 10:36:23;;;;;;;7.43;6.73;;;;;;;19.75;59.99;100153.50;5052049;28;20348;-69
2021/10/20 10:39:05;;;;;;;10.57;7.13;;;;;;;19.23;61.95;100148.06;5051861;28;20728;-70
2021/10/20 10:41:42;;;;;;;8.90;7.70;;;;;;;18.97;61.75;100151.28;5054748;28;20193;-70
2021/10/20 10:44:08;;;;;;;9.53;7.90;;;;;;;18.80;62.25;100157.81;5069826;28;20625;-70
2021/10/20 10:46:35;;;;;;;8.57;7.50;;;;;;;18.81;62.52;100146.53;5071482;28;20201;-70
2021/10/20 10:49:20;;;;;;;10.67;7.97;;;;;;;18.84;62.78;100159.44;5071831;28;20169;-71
2021/10/20 10:52:16;;;;;;;8.40;7.40;;;;;;;18.96;62.99;100151.34;5071864;28;20232;-71
2021/10/20 10:54:51;;;;;;;10.10;7.23;;;;;;;18.76;64.07;100140.63;5051597;28;20221;-69
2021/10/20 10:57:17;;;;;;;8.70;7.60;;;;;;;18.58;64.65;100149.72;5051491;28;20202;-69
2021/10/20 11:00:17;;;;;;;9.27;7.60;;;;;;;18.51;65.41;100163.69;5050428;28;20708;-69
2021/10/20 11:02:55;;;;;;;10.70;7.67;;;;;;;18.41;64.85;100156.16;5063377;28;20811;-68
2021/10/20 11:05:31;;;;;;;8.63;7.67;;;;;;;18.32;65.40;100148.56;5071440;28;20185;-68
2021/10/20 11:08:09;;;;;;;14.23;7.80;;;;;;;18.27;65.09;100155.59;5071571;28;20240;-68
2021/10/20 11:10:36;;;;;;;9.20;7.27;;;;;;;18.21;66.25;100143.66;5057860;28;20567;-68
2021/10/20 11:13:03;;;;;;;10.43;7.87;;;;;;;18.22;65.90;100147.06;5062580;28;20189;-68
2021/10/20 11:15:30;;;;;;;8.40;7.37;;;;;;;18.19;66.39;100137.63;5068577;28;20573;-69
2021/10/20 11:17:56;;;;;;;9.00;7.87;;;;;;;18.13;66.09;100137.78;5071305;28;20258;-69